sensor_id;sensor_type;location;lat;lon;timestamp;temperature;humidity
65419;DHT22;52027;50.658;14.004;2022-07-03T00:00:09;28.17;39.28
65419;DHT22;52027;50.658;14.004;2022-07-03T00:02:35;28.17;39.23
65419;DHT22;52027;50.658;14.004;2022-07-03T00:05:00;28.16;39.28
65419;DHT22;52027;50.658;14.004;2022-07-03T00:07:26;28.17;39.29
65419;DHT22;52027;50.658;14.004;2022-07-03T00:09:51;28.16;39.30
65419;DHT22;52027;50.658;14.004;2022-07-03T00:12:16;28.14;39.30
65419;DHT22;52027;50.658;14.004;2022-07-03T00:14:42;28.14;39.35
65419;DHT22;52027;50.658;14.004;2022-07-03T00:17:07;28.14;39.33
65419;DHT22;52027;50.658;14.004;2022-07-03T00:19:33;28.14;39.33
65419;DHT22;52027;50.658;14.004;2022-07-03T00:22:03;28.13;39.35
65419;DHT22;52027;50.658;14.004;2022-07-03T00:27:11;28.10;39.36
65419;DHT22;52027;50.658;14.004;2022-07-03T00:29:38;28.11;39.32
65419;DHT22;52027;50.658;14.004;2022-07-03T00:32:09;28.11;39.39
65419;DHT22;52027;50.658;14.004;2022-07-03T00:34:35;28.10;39.34
65419;DHT22;52027;50.658;14.004;2022-07-03T00:37:02;28.11;39.40
65419;DHT22;52027;50.658;14.004;2022-07-03T00:39:29;28.11;39.36
65419;DHT22;52027;50.658;14.004;2022-07-03T00:42:02;28.10;39.40
65419;DHT22;52027;50.658;14.004;2022-07-03T00:44:29;28.10;39.39
65419;DHT22;52027;50.658;14.004;2022-07-03T00:46:55;28.11;39.43
65419;DHT22;52027;50.658;14.004;2022-07-03T00:49:25;28.10;39.43
65419;DHT22;52027;50.658;14.004;2022-07-03T00:51:53;28.09;39.40
65419;DHT22;52027;50.658;14.004;2022-07-03T00:54:22;28.09;39.43
65419;DHT22;52027;50.658;14.004;2022-07-03T00:56:52;28.06;39.44
65419;DHT22;52027;50.658;14.004;2022-07-03T00:59:19;28.09;39.44
65419;DHT22;52027;50.658;14.004;2022-07-03T01:01:47;28.07;39.41
65419;DHT22;52027;50.658;14.004;2022-07-03T01:07:37;28.04;39.48
65419;DHT22;52027;50.658;14.004;2022-07-03T01:18:53;27.99;39.56
65419;DHT22;52027;50.658;14.004;2022-07-03T01:26:41;27.99;39.54
65419;DHT22;52027;50.658;14.004;2022-07-03T01:29:16;28.00;39.60
65419;DHT22;52027;50.658;14.004;2022-07-03T01:31:43;28.00;39.55
65419;DHT22;52027;50.658;14.004;2022-07-03T01:34:13;27.96;39.60
65419;DHT22;52027;50.658;14.004;2022-07-03T01:36:41;27.97;39.58
65419;DHT22;52027;50.658;14.004;2022-07-03T01:39:10;27.97;39.60
65419;DHT22;52027;50.658;14.004;2022-07-03T01:41:36;27.96;39.61
65419;DHT22;52027;50.658;14.004;2022-07-03T01:44:02;27.97;39.60
65419;DHT22;52027;50.658;14.004;2022-07-03T01:46:30;27.96;39.61
65419;DHT22;52027;50.658;14.004;2022-07-03T01:48:58;27.94;39.59
65419;DHT22;52027;50.658;14.004;2022-07-03T01:51:24;27.96;39.67
65419;DHT22;52027;50.658;14.004;2022-07-03T01:53:52;27.97;39.62
65419;DHT22;52027;50.658;14.004;2022-07-03T01:56:19;27.93;39.70
65419;DHT22;52027;50.658;14.004;2022-07-03T01:58:46;27.94;39.68
65419;DHT22;52027;50.658;14.004;2022-07-03T02:01:25;27.94;39.67
65419;DHT22;52027;50.658;14.004;2022-07-03T02:04:03;27.93;39.68
65419;DHT22;52027;50.658;14.004;2022-07-03T02:09:40;27.93;39.70
65419;DHT22;52027;50.658;14.004;2022-07-03T02:12:12;27.92;39.72
65419;DHT22;52027;50.658;14.004;2022-07-03T02:14:40;27.93;39.72
65419;DHT22;52027;50.658;14.004;2022-07-03T02:17:18;27.90;39.70
65419;DHT22;52027;50.658;14.004;2022-07-03T02:19:56;27.90;39.75
65419;DHT22;52027;50.658;14.004;2022-07-03T02:25:20;27.89;39.75
65419;DHT22;52027;50.658;14.004;2022-07-03T02:28:30;27.88;39.75
65419;DHT22;52027;50.658;14.004;2022-07-03T02:31:01;27.85;39.72
65419;DHT22;52027;50.658;14.004;2022-07-03T02:33:30;27.86;39.72
65419;DHT22;52027;50.658;14.004;2022-07-03T02:35:57;27.83;39.73
65419;DHT22;52027;50.658;14.004;2022-07-03T02:38:23;27.88;39.78
65419;DHT22;52027;50.658;14.004;2022-07-03T02:44:08;27.85;39.79
65419;DHT22;52027;50.658;14.004;2022-07-03T02:51:54;27.83;39.74
65419;DHT22;52027;50.658;14.004;2022-07-03T02:54:24;27.83;39.86
65419;DHT22;52027;50.658;14.004;2022-07-03T03:02:03;27.79;39.80
65419;DHT22;52027;50.658;14.004;2022-07-03T03:04:33;27.80;39.85
65419;DHT22;52027;50.658;14.004;2022-07-03T03:07:14;27.79;39.80
65419;DHT22;52027;50.658;14.004;2022-07-03T03:09:44;27.79;39.77
65419;DHT22;52027;50.658;14.004;2022-07-03T03:12:12;27.80;39.84
65419;DHT22;52027;50.658;14.004;2022-07-03T03:14:45;27.78;39.80
65419;DHT22;52027;50.658;14.004;2022-07-03T03:17:23;27.78;39.89
65419;DHT22;52027;50.658;14.004;2022-07-03T03:19:56;27.79;39.87
65419;DHT22;52027;50.658;14.004;2022-07-03T03:25:09;27.76;39.84
65419;DHT22;52027;50.658;14.004;2022-07-03T03:27:34;27.76;39.89
65419;DHT22;52027;50.658;14.004;2022-07-03T03:30:00;27.76;39.90
65419;DHT22;52027;50.658;14.004;2022-07-03T03:32:26;27.76;39.93
65419;DHT22;52027;50.658;14.004;2022-07-03T03:34:51;27.76;39.94
65419;DHT22;52027;50.658;14.004;2022-07-03T03:37:17;27.76;39.86
65419;DHT22;52027;50.658;14.004;2022-07-03T03:39:42;27.74;39.90
65419;DHT22;52027;50.658;14.004;2022-07-03T03:42:08;27.73;39.91
65419;DHT22;52027;50.658;14.004;2022-07-03T03:44:33;27.73;39.87
65419;DHT22;52027;50.658;14.004;2022-07-03T03:46:59;27.73;39.95
65419;DHT22;52027;50.658;14.004;2022-07-03T03:49:25;27.73;39.90
65419;DHT22;52027;50.658;14.004;2022-07-03T03:51:50;27.73;39.90
65419;DHT22;52027;50.658;14.004;2022-07-03T03:54:16;27.73;39.90
65419;DHT22;52027;50.658;14.004;2022-07-03T03:56:41;27.73;39.90
65419;DHT22;52027;50.658;14.004;2022-07-03T03:59:06;27.70;39.90
65419;DHT22;52027;50.658;14.004;2022-07-03T04:01:32;27.72;39.95
65419;DHT22;52027;50.658;14.004;2022-07-03T04:03:57;27.70;39.98
65419;DHT22;52027;50.658;14.004;2022-07-03T04:06:24;27.72;39.95
65419;DHT22;52027;50.658;14.004;2022-07-03T04:08:50;27.72;39.98
65419;DHT22;52027;50.658;14.004;2022-07-03T04:11:15;27.73;39.97
65419;DHT22;52027;50.658;14.004;2022-07-03T04:13:40;27.69;40.01
65419;DHT22;52027;50.658;14.004;2022-07-03T04:16:06;27.70;39.97
65419;DHT22;52027;50.658;14.004;2022-07-03T04:18:31;27.70;40.01
65419;DHT22;52027;50.658;14.004;2022-07-03T04:20:56;27.69;40.01
65419;DHT22;52027;50.658;14.004;2022-07-03T04:23:22;27.72;40.04
65419;DHT22;52027;50.658;14.004;2022-07-03T04:25:47;27.72;40.01
65419;DHT22;52027;50.658;14.004;2022-07-03T04:28:13;27.69;40.03
65419;DHT22;52027;50.658;14.004;2022-07-03T04:30:39;27.72;40.00
65419;DHT22;52027;50.658;14.004;2022-07-03T04:33:04;27.70;40.01
65419;DHT22;52027;50.658;14.004;2022-07-03T04:35:29;27.67;40.01
65419;DHT22;52027;50.658;14.004;2022-07-03T04:37:55;27.67;40.04
65419;DHT22;52027;50.658;14.004;2022-07-03T04:40:20;27.69;39.97
65419;DHT22;52027;50.658;14.004;2022-07-03T04:42:46;27.69;40.00
65419;DHT22;52027;50.658;14.004;2022-07-03T04:45:11;27.69;40.02
65419;DHT22;52027;50.658;14.004;2022-07-03T04:47:36;27.69;40.02
65419;DHT22;52027;50.658;14.004;2022-07-03T04:50:02;27.70;40.07
65419;DHT22;52027;50.658;14.004;2022-07-03T04:52:28;27.69;40.02
65419;DHT22;52027;50.658;14.004;2022-07-03T04:54:53;27.67;40.02
65419;DHT22;52027;50.658;14.004;2022-07-03T04:57:18;27.69;40.02
65419;DHT22;52027;50.658;14.004;2022-07-03T04:59:44;27.67;40.06
65419;DHT22;52027;50.658;14.004;2022-07-03T05:02:09;27.70;40.06
65419;DHT22;52027;50.658;14.004;2022-07-03T05:04:35;27.72;40.04
65419;DHT22;52027;50.658;14.004;2022-07-03T05:07:01;27.66;40.07
65419;DHT22;52027;50.658;14.004;2022-07-03T05:09:26;27.66;40.08
65419;DHT22;52027;50.658;14.004;2022-07-03T05:11:52;27.66;40.07
65419;DHT22;52027;50.658;14.004;2022-07-03T05:14:17;27.69;40.07
65419;DHT22;52027;50.658;14.004;2022-07-03T05:16:42;27.67;40.06
65419;DHT22;52027;50.658;14.004;2022-07-03T05:19:08;27.66;40.06
65419;DHT22;52027;50.658;14.004;2022-07-03T05:21:33;27.67;40.10
65419;DHT22;52027;50.658;14.004;2022-07-03T05:23:58;27.66;40.07
65419;DHT22;52027;50.658;14.004;2022-07-03T05:26:24;27.70;40.06
65419;DHT22;52027;50.658;14.004;2022-07-03T05:28:50;27.67;40.04
65419;DHT22;52027;50.658;14.004;2022-07-03T05:31:15;27.69;40.08
65419;DHT22;52027;50.658;14.004;2022-07-03T05:33:41;27.66;40.04
65419;DHT22;52027;50.658;14.004;2022-07-03T05:36:06;27.67;40.04
65419;DHT22;52027;50.658;14.004;2022-07-03T05:38:32;27.70;40.08
65419;DHT22;52027;50.658;14.004;2022-07-03T05:41:16;27.69;40.04
65419;DHT22;52027;50.658;14.004;2022-07-03T05:43:42;27.69;40.08
65419;DHT22;52027;50.658;14.004;2022-07-03T05:46:07;27.67;40.13
65419;DHT22;52027;50.658;14.004;2022-07-03T05:48:33;27.70;40.06
65419;DHT22;52027;50.658;14.004;2022-07-03T05:50:58;27.67;40.06
65419;DHT22;52027;50.658;14.004;2022-07-03T05:53:23;27.69;40.10
65419;DHT22;52027;50.658;14.004;2022-07-03T05:55:49;27.69;40.11
65419;DHT22;52027;50.658;14.004;2022-07-03T05:58:14;27.69;40.16
65419;DHT22;52027;50.658;14.004;2022-07-03T06:00:40;27.69;40.12
65419;DHT22;52027;50.658;14.004;2022-07-03T06:03:06;27.70;40.10
65419;DHT22;52027;50.658;14.004;2022-07-03T06:05:32;27.72;40.07
65419;DHT22;52027;50.658;14.004;2022-07-03T06:07:57;27.70;40.05
65419;DHT22;52027;50.658;14.004;2022-07-03T06:10:23;27.70;40.08
65419;DHT22;52027;50.658;14.004;2022-07-03T06:12:49;27.72;40.15
65419;DHT22;52027;50.658;14.004;2022-07-03T06:15:14;27.70;40.07
65419;DHT22;52027;50.658;14.004;2022-07-03T06:17:39;27.73;40.12
65419;DHT22;52027;50.658;14.004;2022-07-03T06:20:06;27.74;40.15
65419;DHT22;52027;50.658;14.004;2022-07-03T06:22:32;27.72;40.12
65419;DHT22;52027;50.658;14.004;2022-07-03T06:24:57;27.73;40.13
65419;DHT22;52027;50.658;14.004;2022-07-03T06:27:23;27.74;40.10
65419;DHT22;52027;50.658;14.004;2022-07-03T06:29:48;27.73;40.16
65419;DHT22;52027;50.658;14.004;2022-07-03T06:32:17;27.72;40.16
65419;DHT22;52027;50.658;14.004;2022-07-03T06:34:42;27.73;40.12
65419;DHT22;52027;50.658;14.004;2022-07-03T06:37:09;27.74;40.15
65419;DHT22;52027;50.658;14.004;2022-07-03T06:39:34;27.73;40.13
65419;DHT22;52027;50.658;14.004;2022-07-03T06:41:59;27.72;40.13
65419;DHT22;52027;50.658;14.004;2022-07-03T06:44:25;27.73;40.12
65419;DHT22;52027;50.658;14.004;2022-07-03T06:46:50;27.74;40.15
65419;DHT22;52027;50.658;14.004;2022-07-03T06:49:15;27.73;40.19
65419;DHT22;52027;50.658;14.004;2022-07-03T06:51:41;27.74;40.21
65419;DHT22;52027;50.658;14.004;2022-07-03T06:54:06;27.74;40.25
65419;DHT22;52027;50.658;14.004;2022-07-03T06:56:31;27.73;40.24
65419;DHT22;52027;50.658;14.004;2022-07-03T06:58:57;27.74;40.22
65419;DHT22;52027;50.658;14.004;2022-07-03T07:01:22;27.76;40.27
65419;DHT22;52027;50.658;14.004;2022-07-03T07:03:48;27.72;40.21
65419;DHT22;52027;50.658;14.004;2022-07-03T07:06:13;27.76;40.26
65419;DHT22;52027;50.658;14.004;2022-07-03T07:08:38;27.76;40.26
65419;DHT22;52027;50.658;14.004;2022-07-03T07:11:04;27.78;40.24
65419;DHT22;52027;50.658;14.004;2022-07-03T07:13:29;27.78;40.20
65419;DHT22;52027;50.658;14.004;2022-07-03T07:15:54;27.80;40.20
65419;DHT22;52027;50.658;14.004;2022-07-03T07:18:20;27.78;40.23
65419;DHT22;52027;50.658;14.004;2022-07-03T07:20:45;27.80;40.24
65419;DHT22;52027;50.658;14.004;2022-07-03T07:23:10;27.79;40.26
65419;DHT22;52027;50.658;14.004;2022-07-03T07:25:36;27.80;40.32
65419;DHT22;52027;50.658;14.004;2022-07-03T07:28:02;27.85;40.24
65419;DHT22;52027;50.658;14.004;2022-07-03T07:30:27;27.85;40.23
65419;DHT22;52027;50.658;14.004;2022-07-03T07:32:52;27.83;40.23
65419;DHT22;52027;50.658;14.004;2022-07-03T07:35:18;27.85;40.25
65419;DHT22;52027;50.658;14.004;2022-07-03T07:37:43;27.86;40.25
65419;DHT22;52027;50.658;14.004;2022-07-03T07:40:09;27.86;40.27
65419;DHT22;52027;50.658;14.004;2022-07-03T07:42:35;27.86;40.24
65419;DHT22;52027;50.658;14.004;2022-07-03T07:45:01;27.88;40.25
65419;DHT22;52027;50.658;14.004;2022-07-03T07:47:26;27.90;40.24
65419;DHT22;52027;50.658;14.004;2022-07-03T07:49:51;27.89;40.28
65419;DHT22;52027;50.658;14.004;2022-07-03T07:52:17;27.92;40.26
65419;DHT22;52027;50.658;14.004;2022-07-03T07:54:42;27.90;40.27
65419;DHT22;52027;50.658;14.004;2022-07-03T07:57:07;27.93;40.23
65419;DHT22;52027;50.658;14.004;2022-07-03T07:59:33;27.93;40.28
65419;DHT22;52027;50.658;14.004;2022-07-03T08:01:58;27.94;40.25
65419;DHT22;52027;50.658;14.004;2022-07-03T08:04:42;27.96;40.25
65419;DHT22;52027;50.658;14.004;2022-07-03T08:07:26;27.97;40.28
65419;DHT22;52027;50.658;14.004;2022-07-03T08:09:52;28.03;40.27
65419;DHT22;52027;50.658;14.004;2022-07-03T08:12:19;28.00;40.22
65419;DHT22;52027;50.658;14.004;2022-07-03T08:14:44;28.01;40.21
65419;DHT22;52027;50.658;14.004;2022-07-03T08:17:09;28.03;40.21
65419;DHT22;52027;50.658;14.004;2022-07-03T08:19:35;28.04;40.21
65419;DHT22;52027;50.658;14.004;2022-07-03T08:22:00;28.06;40.21
65419;DHT22;52027;50.658;14.004;2022-07-03T08:24:26;28.07;40.19
65419;DHT22;52027;50.658;14.004;2022-07-03T08:26:52;28.07;40.13
65419;DHT22;52027;50.658;14.004;2022-07-03T08:29:17;28.09;40.17
65419;DHT22;52027;50.658;14.004;2022-07-03T08:31:42;28.11;40.17
65419;DHT22;52027;50.658;14.004;2022-07-03T08:34:08;28.13;40.10
65419;DHT22;52027;50.658;14.004;2022-07-03T08:36:37;28.14;40.15
65419;DHT22;52027;50.658;14.004;2022-07-03T08:39:02;28.16;40.15
65419;DHT22;52027;50.658;14.004;2022-07-03T08:41:28;28.17;40.11
65419;DHT22;52027;50.658;14.004;2022-07-03T08:43:55;28.16;40.12
65419;DHT22;52027;50.658;14.004;2022-07-03T08:46:20;28.18;40.08
65419;DHT22;52027;50.658;14.004;2022-07-03T08:48:46;28.20;40.20
65419;DHT22;52027;50.658;14.004;2022-07-03T08:51:13;28.21;40.10
65419;DHT22;52027;50.658;14.004;2022-07-03T08:53:39;28.24;40.07
65419;DHT22;52027;50.658;14.004;2022-07-03T08:56:04;28.25;40.07
65419;DHT22;52027;50.658;14.004;2022-07-03T08:58:31;28.28;40.04
65419;DHT22;52027;50.658;14.004;2022-07-03T09:00:57;28.27;40.00
65419;DHT22;52027;50.658;14.004;2022-07-03T09:03:24;28.30;40.00
65419;DHT22;52027;50.658;14.004;2022-07-03T09:05:50;28.28;39.97
65419;DHT22;52027;50.658;14.004;2022-07-03T09:08:16;28.33;39.97
65419;DHT22;52027;50.658;14.004;2022-07-03T09:10:44;28.34;39.95
65419;DHT22;52027;50.658;14.004;2022-07-03T09:13:11;28.37;39.92
65419;DHT22;52027;50.658;14.004;2022-07-03T09:15:36;28.37;39.91
65419;DHT22;52027;50.658;14.004;2022-07-03T09:18:06;28.37;39.83
65419;DHT22;52027;50.658;14.004;2022-07-03T09:20:34;28.40;39.86
65419;DHT22;52027;50.658;14.004;2022-07-03T09:23:13;28.41;39.82
65419;DHT22;52027;50.658;14.004;2022-07-03T09:25:55;28.43;39.81
65419;DHT22;52027;50.658;14.004;2022-07-03T09:28:40;28.45;39.78
65419;DHT22;52027;50.658;14.004;2022-07-03T09:31:13;28.47;39.81
65419;DHT22;52027;50.658;14.004;2022-07-03T09:36:17;28.47;39.77
65419;DHT22;52027;50.658;14.004;2022-07-03T09:38:45;28.49;39.76
65419;DHT22;52027;50.658;14.004;2022-07-03T09:41:11;28.52;39.74
65419;DHT22;52027;50.658;14.004;2022-07-03T09:43:41;28.54;39.65
65419;DHT22;52027;50.658;14.004;2022-07-03T09:46:07;28.54;39.67
65419;DHT22;52027;50.658;14.004;2022-07-03T09:48:35;28.55;39.67
65419;DHT22;52027;50.658;14.004;2022-07-03T09:56:11;28.59;39.59
65419;DHT22;52027;50.658;14.004;2022-07-03T09:58:38;28.62;39.53
65419;DHT22;52027;50.658;14.004;2022-07-03T10:01:21;28.62;39.47
65419;DHT22;52027;50.658;14.004;2022-07-03T10:03:47;28.64;39.52
65419;DHT22;52027;50.658;14.004;2022-07-03T10:06:13;28.62;39.45
65419;DHT22;52027;50.658;14.004;2022-07-03T10:08:39;28.66;39.43
65419;DHT22;52027;50.658;14.004;2022-07-03T10:11:06;28.69;39.45
65419;DHT22;52027;50.658;14.004;2022-07-03T10:13:33;28.69;39.41
65419;DHT22;52027;50.658;14.004;2022-07-03T10:16:00;28.69;39.43
65419;DHT22;52027;50.658;14.004;2022-07-03T10:18:30;28.71;39.33
65419;DHT22;52027;50.658;14.004;2022-07-03T10:20:57;28.72;39.33
65419;DHT22;52027;50.658;14.004;2022-07-03T10:23:24;28.74;39.36
65419;DHT22;52027;50.658;14.004;2022-07-03T10:25:51;28.76;39.35
65419;DHT22;52027;50.658;14.004;2022-07-03T10:28:18;28.76;39.32
65419;DHT22;52027;50.658;14.004;2022-07-03T10:30:45;28.78;39.29
65419;DHT22;52027;50.658;14.004;2022-07-03T10:33:11;28.78;39.24
65419;DHT22;52027;50.658;14.004;2022-07-03T10:35:39;28.83;39.27
65419;DHT22;52027;50.658;14.004;2022-07-03T10:38:18;28.80;39.18
65419;DHT22;52027;50.658;14.004;2022-07-03T10:43:47;28.83;39.23
65419;DHT22;52027;50.658;14.004;2022-07-03T10:46:31;28.83;39.26
65419;DHT22;52027;50.658;14.004;2022-07-03T10:49:12;28.85;39.25
65419;DHT22;52027;50.658;14.004;2022-07-03T11:02:41;28.91;39.16
65419;DHT22;52027;50.658;14.004;2022-07-03T11:05:15;28.93;39.10
65419;DHT22;52027;50.658;14.004;2022-07-03T11:15:53;28.96;39.12
65419;DHT22;52027;50.658;14.004;2022-07-03T11:26:40;29.03;39.03
65419;DHT22;52027;50.658;14.004;2022-07-03T11:33:42;29.06;38.98
65419;DHT22;52027;50.658;14.004;2022-07-03T11:41:27;29.07;38.92
65419;DHT22;52027;50.658;14.004;2022-07-03T11:44:01;29.09;39.00
65419;DHT22;52027;50.658;14.004;2022-07-03T11:46:30;29.09;38.95
65419;DHT22;52027;50.658;14.004;2022-07-03T11:49:06;29.09;38.98
65419;DHT22;52027;50.658;14.004;2022-07-03T11:51:32;29.06;39.06
65419;DHT22;52027;50.658;14.004;2022-07-03T11:53:57;29.09;38.94
65419;DHT22;52027;50.658;14.004;2022-07-03T11:56:23;29.10;38.95
65419;DHT22;52027;50.658;14.004;2022-07-03T11:58:50;29.12;38.93
65419;DHT22;52027;50.658;14.004;2022-07-03T12:04:02;29.13;38.91
65419;DHT22;52027;50.658;14.004;2022-07-03T12:06:35;29.13;38.89
65419;DHT22;52027;50.658;14.004;2022-07-03T12:09:01;29.14;38.94
65419;DHT22;52027;50.658;14.004;2022-07-03T12:11:27;29.16;38.92
65419;DHT22;52027;50.658;14.004;2022-07-03T12:13:52;29.17;38.87
65419;DHT22;52027;50.658;14.004;2022-07-03T12:16:18;29.20;38.84
65419;DHT22;52027;50.658;14.004;2022-07-03T12:18:53;29.22;38.74
65419;DHT22;52027;50.658;14.004;2022-07-03T12:21:21;29.22;38.74
65419;DHT22;52027;50.658;14.004;2022-07-03T12:23:50;29.22;38.67
65419;DHT22;52027;50.658;14.004;2022-07-03T12:26:33;29.27;38.68
65419;DHT22;52027;50.658;14.004;2022-07-03T12:29:00;29.26;38.72
65419;DHT22;52027;50.658;14.004;2022-07-03T12:31:27;29.27;38.62
65419;DHT22;52027;50.658;14.004;2022-07-03T12:33:54;29.29;38.59
65419;DHT22;52027;50.658;14.004;2022-07-03T12:36:19;29.30;38.65
65419;DHT22;52027;50.658;14.004;2022-07-03T12:38:49;29.31;38.60
65419;DHT22;52027;50.658;14.004;2022-07-03T12:41:16;29.34;38.55
65419;DHT22;52027;50.658;14.004;2022-07-03T12:43:45;29.37;38.48
65419;DHT22;52027;50.658;14.004;2022-07-03T12:48:56;29.38;38.52
65419;DHT22;52027;50.658;14.004;2022-07-03T12:51:41;29.40;38.41
65419;DHT22;52027;50.658;14.004;2022-07-03T12:54:10;29.43;38.43
65419;DHT22;52027;50.658;14.004;2022-07-03T12:56:36;29.44;38.41
65419;DHT22;52027;50.658;14.004;2022-07-03T12:59:02;29.46;38.43
65419;DHT22;52027;50.658;14.004;2022-07-03T13:02:26;29.49;38.40
65419;DHT22;52027;50.658;14.004;2022-07-03T13:04:34;29.50;38.33
65419;DHT22;52027;50.658;14.004;2022-07-03T13:07:04;29.53;38.31
65419;DHT22;52027;50.658;14.004;2022-07-03T13:09:30;29.54;38.24
65419;DHT22;52027;50.658;14.004;2022-07-03T13:11:55;29.53;38.24
65419;DHT22;52027;50.658;14.004;2022-07-03T13:14:21;29.57;38.25
65419;DHT22;52027;50.658;14.004;2022-07-03T13:16:49;29.58;38.26
65419;DHT22;52027;50.658;14.004;2022-07-03T13:19:19;29.61;38.25
65419;DHT22;52027;50.658;14.004;2022-07-03T13:21:46;29.60;38.21
65419;DHT22;52027;50.658;14.004;2022-07-03T13:24:14;29.65;38.18
65419;DHT22;52027;50.658;14.004;2022-07-03T13:26:40;29.69;38.18
65419;DHT22;52027;50.658;14.004;2022-07-03T13:29:06;29.67;38.15
65419;DHT22;52027;50.658;14.004;2022-07-03T13:31:31;29.69;38.15
65419;DHT22;52027;50.658;14.004;2022-07-03T13:33:58;29.72;38.16
65419;DHT22;52027;50.658;14.004;2022-07-03T13:36:25;29.72;38.05
65419;DHT22;52027;50.658;14.004;2022-07-03T13:38:50;29.72;37.98
65419;DHT22;52027;50.658;14.004;2022-07-03T13:41:16;29.77;38.12
65419;DHT22;52027;50.658;14.004;2022-07-03T13:43:41;29.78;38.05
65419;DHT22;52027;50.658;14.004;2022-07-03T13:46:07;29.78;37.98
65419;DHT22;52027;50.658;14.004;2022-07-03T13:48:32;29.78;37.94
65419;DHT22;52027;50.658;14.004;2022-07-03T13:50:58;29.82;37.98
65419;DHT22;52027;50.658;14.004;2022-07-03T13:53:24;29.82;38.00
65419;DHT22;52027;50.658;14.004;2022-07-03T13:55:49;29.85;37.97
65419;DHT22;52027;50.658;14.004;2022-07-03T13:58:16;29.84;37.89
65419;DHT22;52027;50.658;14.004;2022-07-03T14:00:41;29.85;37.89
65419;DHT22;52027;50.658;14.004;2022-07-03T14:03:06;29.88;37.83
65419;DHT22;52027;50.658;14.004;2022-07-03T14:05:32;29.89;37.80
65419;DHT22;52027;50.658;14.004;2022-07-03T14:07:57;29.88;37.83
65419;DHT22;52027;50.658;14.004;2022-07-03T14:10:23;29.90;37.83
65419;DHT22;52027;50.658;14.004;2022-07-03T14:12:50;29.93;37.74
65419;DHT22;52027;50.658;14.004;2022-07-03T14:15:16;29.93;37.74
65419;DHT22;52027;50.658;14.004;2022-07-03T14:17:42;29.93;37.65
65419;DHT22;52027;50.658;14.004;2022-07-03T14:20:09;29.93;37.75
65419;DHT22;52027;50.658;14.004;2022-07-03T14:22:34;29.93;37.67
65419;DHT22;52027;50.658;14.004;2022-07-03T14:25:00;29.95;37.72
65419;DHT22;52027;50.658;14.004;2022-07-03T14:27:25;29.96;37.70
65419;DHT22;52027;50.658;14.004;2022-07-03T14:30:09;29.98;37.70
65419;DHT22;52027;50.658;14.004;2022-07-03T14:32:53;29.99;37.72
65419;DHT22;52027;50.658;14.004;2022-07-03T14:35:19;29.96;37.70
65419;DHT22;52027;50.658;14.004;2022-07-03T14:37:44;30.01;37.62
65419;DHT22;52027;50.658;14.004;2022-07-03T14:40:10;30.01;37.69
65419;DHT22;52027;50.658;14.004;2022-07-03T14:42:36;30.04;37.60
65419;DHT22;52027;50.658;14.004;2022-07-03T14:45:01;30.04;37.59
65419;DHT22;52027;50.658;14.004;2022-07-03T14:47:26;30.04;37.61
65419;DHT22;52027;50.658;14.004;2022-07-03T14:49:53;30.02;37.53
65419;DHT22;52027;50.658;14.004;2022-07-03T14:52:18;30.05;37.58
65419;DHT22;52027;50.658;14.004;2022-07-03T14:54:44;30.06;37.52
65419;DHT22;52027;50.658;14.004;2022-07-03T14:57:24;30.08;37.52
65419;DHT22;52027;50.658;14.004;2022-07-03T15:00:00;30.08;37.49
65419;DHT22;52027;50.658;14.004;2022-07-03T15:03:03;30.09;37.43
65419;DHT22;52027;50.658;14.004;2022-07-03T15:05:29;30.10;37.48
65419;DHT22;52027;50.658;14.004;2022-07-03T15:10:46;30.16;37.50
65419;DHT22;52027;50.658;14.004;2022-07-03T15:13:13;30.16;37.48
65419;DHT22;52027;50.658;14.004;2022-07-03T15:15:40;30.16;37.54
65419;DHT22;52027;50.658;14.004;2022-07-03T15:18:06;30.15;37.50
65419;DHT22;52027;50.658;14.004;2022-07-03T15:20:34;30.17;37.41
65419;DHT22;52027;50.658;14.004;2022-07-03T15:23:01;30.19;37.39
65419;DHT22;52027;50.658;14.004;2022-07-03T15:25:32;30.19;37.39
65419;DHT22;52027;50.658;14.004;2022-07-03T15:27:58;30.22;37.33
65419;DHT22;52027;50.658;14.004;2022-07-03T15:30:24;30.23;37.17
65419;DHT22;52027;50.658;14.004;2022-07-03T15:32:54;30.25;37.08
65419;DHT22;52027;50.658;14.004;2022-07-03T15:35:21;30.25;37.00
65419;DHT22;52027;50.658;14.004;2022-07-03T15:38:12;30.27;37.01
65419;DHT22;52027;50.658;14.004;2022-07-03T15:40:54;30.25;36.81
65419;DHT22;52027;50.658;14.004;2022-07-03T15:43:50;30.26;36.63
65419;DHT22;52027;50.658;14.004;2022-07-03T15:46:55;30.27;36.53
65419;DHT22;52027;50.658;14.004;2022-07-03T15:49:27;30.25;36.35
65419;DHT22;52027;50.658;14.004;2022-07-03T15:52:06;30.23;36.27
65419;DHT22;52027;50.658;14.004;2022-07-03T15:57:50;30.27;36.12
65419;DHT22;52027;50.658;14.004;2022-07-03T16:00:18;30.27;36.03
65419;DHT22;52027;50.658;14.004;2022-07-03T16:05:36;30.26;36.11
65419;DHT22;52027;50.658;14.004;2022-07-03T16:08:05;30.23;35.99
65419;DHT22;52027;50.658;14.004;2022-07-03T16:10:32;30.27;35.93
65419;DHT22;52027;50.658;14.004;2022-07-03T16:12:59;30.23;35.77
65419;DHT22;52027;50.658;14.004;2022-07-03T16:15:29;30.25;35.87
65419;DHT22;52027;50.658;14.004;2022-07-03T16:17:55;30.26;35.81
65419;DHT22;52027;50.658;14.004;2022-07-03T16:20:25;30.26;35.76
65419;DHT22;52027;50.658;14.004;2022-07-03T16:22:55;30.25;35.70
65419;DHT22;52027;50.658;14.004;2022-07-03T16:25:21;30.22;35.85
65419;DHT22;52027;50.658;14.004;2022-07-03T16:27:47;30.23;35.79
65419;DHT22;52027;50.658;14.004;2022-07-03T16:30:12;30.22;35.78
65419;DHT22;52027;50.658;14.004;2022-07-03T16:32:39;30.23;35.75
65419;DHT22;52027;50.658;14.004;2022-07-03T16:37:56;30.20;35.73
65419;DHT22;52027;50.658;14.004;2022-07-03T16:40:24;30.17;35.65
65419;DHT22;52027;50.658;14.004;2022-07-03T16:42:51;30.17;35.60
65419;DHT22;52027;50.658;14.004;2022-07-03T16:45:19;30.15;35.65
65419;DHT22;52027;50.658;14.004;2022-07-03T16:47:47;30.15;35.58
65419;DHT22;52027;50.658;14.004;2022-07-03T16:50:14;30.16;35.63
65419;DHT22;52027;50.658;14.004;2022-07-03T16:52:42;30.15;35.59
65419;DHT22;52027;50.658;14.004;2022-07-03T16:55:08;30.12;35.71
65419;DHT22;52027;50.658;14.004;2022-07-03T16:57:39;30.12;35.56
65419;DHT22;52027;50.658;14.004;2022-07-03T17:00:07;30.12;35.71
65419;DHT22;52027;50.658;14.004;2022-07-03T17:02:33;30.10;35.51
65419;DHT22;52027;50.658;14.004;2022-07-03T17:05:00;30.08;35.61
65419;DHT22;52027;50.658;14.004;2022-07-03T17:07:26;30.09;35.82